QUN weather

CLOSED Camp Page Airport (A-306)
Chun Chon City, Gang'weondo, South Korea

Public forecast

Using degrees Celsius for public forecast. Weather courtesy of forecast.io.

METAR (pilot weather report)

Report is more than 6 hours old.

Closest report is Wonju/Hoengseong Air Base (K-38/K-46), 29.0 nm (53.8 km) SSE. Retrieved 2018/08/06 03:31 UTC (8 months ago):

RKNW 060331Z 27006KT 8000 BR BKN030 31/26 A2975 RMK CIG030

TAF (pilot weather forecast)

Closest forecast is Seoul Air Base (K-16), 39.0 nm (72.3 km) SW. Retrieved 2019/03/22 18:47 UTC (4 hours ago):

TAF RKSM 221700Z 2218/2324 27006KT 9999 SCT200 BECMG 2218/2219 30006KT 9999 BKN030 BECMG 2303/2304 30008KT 8000 -RASN OVC030 BECMG 2307/2308 33006KT 9999 NSW SCT030 TNM02/2221Z TX07/2306Z